1FL5 weather

West Bay Creek Seaplane Base
West Bay, Florida, United States

Public forecast

Using degrees Fahrenheit for public forecast. Weather courtesy of forecast.io.

METAR (pilot weather report)

Closest report is Northwest Florida Beaches International Airport, 4.9 nm (9.0 km) NE. Retrieved 2018/08/20 23:00 UTC (3 minutes ago):

KECP 202300Z 26010KT 10SM FEW080 27/22 A3006 RMK AO2 RAE00 P0000 T02670222

TAF (pilot weather forecast)

Closest forecast is Northwest Florida Beaches International Airport, 4.9 nm (9.0 km) NE. Retrieved 2018/08/20 18:28 UTC (5 hours ago):

TAF KECP 201725Z 2018/2118 16008KT P6SM VCSH FEW025 BKN035 FM202100 18008KT P6SM SCT030 BKN100 FM202300 VRB02KT P6SM SCT250 FM211500 19005KT P6SM VCTS SCT025 BKN035CB